createdAt,value
2023-03-08T00:02:05.618Z,14.55
2023-03-08T00:04:32.571Z,14.63
2023-03-08T00:07:02.724Z,14.67
2023-03-08T00:09:29.574Z,14.66
2023-03-08T00:11:56.403Z,14.69
2023-03-08T00:14:23.216Z,14.66
2023-03-08T00:16:50.089Z,14.50
2023-03-08T00:19:17.205Z,14.46
2023-03-08T00:21:44.000Z,14.46
2023-03-08T00:24:12.208Z,14.47
2023-03-08T00:26:39.039Z,14.51
2023-03-08T00:29:06.612Z,14.35
2023-03-08T00:31:33.524Z,14.41
2023-03-08T00:34:00.386Z,14.43
2023-03-08T00:36:27.335Z,14.24
2023-03-08T00:38:54.142Z,14.05
2023-03-08T00:41:21.149Z,14.05
2023-03-08T00:43:48.224Z,13.98
2023-03-08T00:46:15.708Z,13.90
2023-03-08T00:48:42.845Z,13.94
2023-03-08T00:51:13.845Z,14.05
2023-03-08T00:53:41.116Z,14.12
2023-03-08T00:56:08.120Z,14.08
2023-03-08T00:58:37.621Z,14.00
2023-03-08T01:01:04.703Z,14.09
2023-03-08T01:03:32.017Z,14.07
2023-03-08T01:05:59.348Z,14.11
2023-03-08T01:08:27.237Z,14.06
2023-03-08T01:10:59.343Z,14.09
2023-03-08T01:13:29.715Z,14.10
2023-03-08T01:15:56.679Z,13.96
2023-03-08T01:18:23.606Z,13.99
2023-03-08T01:21:02.818Z,13.98
2023-03-08T01:23:30.973Z,13.98
2023-03-08T01:26:02.371Z,14.02
2023-03-08T01:28:29.508Z,14.01
2023-03-08T01:31:05.089Z,14.03
2023-03-08T01:33:33.555Z,14.03
2023-03-08T01:36:02.594Z,13.98
2023-03-08T01:38:29.445Z,13.98
2023-03-08T01:40:58.247Z,13.87
2023-03-08T01:43:28.076Z,13.47
2023-03-08T01:46:17.801Z,13.38
2023-03-08T01:48:59.286Z,13.19
2023-03-08T01:51:39.749Z,13.24
2023-03-08T01:54:29.975Z,13.13
2023-03-08T01:57:07.271Z,13.10
2023-03-08T01:59:35.515Z,13.14
2023-03-08T02:02:03.098Z,13.16
2023-03-08T02:04:31.829Z,13.25
2023-03-08T02:06:59.337Z,13.25
2023-03-08T02:09:27.684Z,13.31
2023-03-08T02:11:59.325Z,13.37
2023-03-08T02:14:26.597Z,13.23
2023-03-08T02:16:54.433Z,13.05
2023-03-08T02:19:27.749Z,13.09
2023-03-08T02:21:54.580Z,13.15
2023-03-08T02:24:24.397Z,13.17
2023-03-08T02:27:02.250Z,13.21
2023-03-08T02:29:29.045Z,13.19
2023-03-08T02:31:55.757Z,13.25
2023-03-08T02:34:22.558Z,13.22
2023-03-08T02:36:49.362Z,13.23
2023-03-08T02:39:17.395Z,13.22
2023-03-08T02:41:44.135Z,13.23
2023-03-08T02:44:13.505Z,13.21
2023-03-08T02:46:40.320Z,13.15
2023-03-08T02:49:07.187Z,13.08
2023-03-08T02:51:34.106Z,13.11
2023-03-08T02:54:01.005Z,13.09
2023-03-08T02:56:28.535Z,13.10
2023-03-08T02:58:55.387Z,13.04
2023-03-08T03:01:23.565Z,13.05
2023-03-08T03:03:50.413Z,13.04
2023-03-08T03:06:20.131Z,13.04
2023-03-08T03:08:51.268Z,13.03
2023-03-08T03:11:21.238Z,13.02
2023-03-08T03:13:56.933Z,12.85
2023-03-08T03:16:26.931Z,12.85
2023-03-08T03:18:55.785Z,12.91
2023-03-08T03:21:23.652Z,12.83
2023-03-08T03:23:50.558Z,12.69
2023-03-08T03:26:22.539Z,12.68
2023-03-08T03:28:55.508Z,12.74
2023-03-08T03:31:24.402Z,12.80
2023-03-08T03:33:51.849Z,12.71
2023-03-08T03:36:21.844Z,12.69
2023-03-08T03:38:49.124Z,12.69
2023-03-08T03:41:18.986Z,12.71
2023-03-08T03:43:46.671Z,12.77
2023-03-08T03:46:16.768Z,12.85
2023-03-08T03:48:46.181Z,12.86
2023-03-08T03:51:17.115Z,12.85
2023-03-08T03:53:47.920Z,12.64
2023-03-08T03:56:21.436Z,12.68
2023-03-08T03:58:49.223Z,12.68
2023-03-08T04:01:28.428Z,12.63
2023-03-08T04:04:01.668Z,12.70
2023-03-08T04:06:34.266Z,12.64
2023-03-08T04:09:04.119Z,12.62
2023-03-08T04:11:38.855Z,12.66
2023-03-08T04:14:09.483Z,12.70
2023-03-08T04:16:39.389Z,12.71
2023-03-08T04:19:13.529Z,12.82
2023-03-08T04:21:47.538Z,12.89
2023-03-08T04:24:16.914Z,12.86
2023-03-08T04:26:46.533Z,12.86
2023-03-08T04:29:17.388Z,12.92
2023-03-08T04:31:44.411Z,12.93
2023-03-08T04:34:14.474Z,12.98
2023-03-08T04:36:41.978Z,12.92
2023-03-08T04:39:09.565Z,12.95
2023-03-08T04:41:36.484Z,12.86
2023-03-08T04:44:25.919Z,12.92
2023-03-08T04:46:53.726Z,12.78
2023-03-08T04:49:27.820Z,12.69
2023-03-08T04:51:59.592Z,12.66
2023-03-08T04:54:28.031Z,12.77
2023-03-08T04:57:03.010Z,12.84
2023-03-08T04:59:31.835Z,12.90
2023-03-08T05:02:01.855Z,12.99
2023-03-08T05:04:30.603Z,13.05
2023-03-08T05:06:57.398Z,13.08
2023-03-08T05:09:27.366Z,13.04
2023-03-08T05:11:54.197Z,13.07
2023-03-08T05:14:22.409Z,13.10
2023-03-08T05:16:50.489Z,13.02
2023-03-08T05:19:17.478Z,13.16
2023-03-08T05:21:48.989Z,13.20
2023-03-08T05:24:15.821Z,13.23
2023-03-08T05:26:42.807Z,13.28
2023-03-08T05:29:11.525Z,13.38
2023-03-08T05:31:40.115Z,13.42
2023-03-08T05:34:11.368Z,13.48
2023-03-08T05:36:42.701Z,13.56
2023-03-08T05:39:10.918Z,13.63
2023-03-08T05:41:44.526Z,13.64
2023-03-08T05:44:14.131Z,13.72
2023-03-08T05:46:41.449Z,13.76
2023-03-08T05:49:10.724Z,13.76
2023-03-08T05:51:37.754Z,13.79
2023-03-08T05:54:05.681Z,13.83
2023-03-08T05:56:34.493Z,13.85
2023-03-08T05:59:07.209Z,13.90
2023-03-08T06:01:34.028Z,13.91
2023-03-08T06:04:21.574Z,13.94
2023-03-08T06:06:50.202Z,13.98
2023-03-08T06:09:18.845Z,14.00
2023-03-08T06:11:46.318Z,14.02
2023-03-08T06:14:13.444Z,14.02
2023-03-08T06:16:41.413Z,14.04
2023-03-08T06:19:08.301Z,14.06
2023-03-08T06:21:37.066Z,14.03
2023-03-08T06:24:05.720Z,14.07
2023-03-08T06:26:33.291Z,14.09
2023-03-08T06:29:00.653Z,14.13
2023-03-08T06:31:30.166Z,14.15
2023-03-08T06:33:57.814Z,14.18
2023-03-08T06:36:27.402Z,14.21
2023-03-08T06:38:54.332Z,14.25
2023-03-08T06:41:21.893Z,14.28
2023-03-08T06:43:53.533Z,14.29
2023-03-08T06:46:22.102Z,14.26
2023-03-08T06:48:49.345Z,14.33
2023-03-08T06:51:18.239Z,14.35
2023-03-08T06:53:46.566Z,14.36
2023-03-08T06:56:18.036Z,14.33
2023-03-08T06:58:45.273Z,14.37
2023-03-08T07:01:13.880Z,14.39
2023-03-08T07:03:40.865Z,14.35
2023-03-08T07:06:09.879Z,14.46
2023-03-08T07:08:37.823Z,14.54
2023-03-08T07:11:06.686Z,14.61
2023-03-08T07:13:33.699Z,14.69
2023-03-08T07:16:06.909Z,14.79
2023-03-08T07:18:33.759Z,14.89
2023-03-08T07:21:00.537Z,15.00
2023-03-08T07:23:27.518Z,15.08
2023-03-08T07:25:54.380Z,15.15
2023-03-08T07:28:22.588Z,15.23
2023-03-08T07:30:53.504Z,15.32
2023-03-08T07:33:21.692Z,15.39
2023-03-08T07:35:48.882Z,15.47
2023-03-08T07:38:16.656Z,15.52
2023-03-08T07:40:43.882Z,15.56
2023-03-08T07:43:10.901Z,15.60
2023-03-08T07:45:59.812Z,15.63
2023-03-08T07:48:26.596Z,15.71
2023-03-08T07:50:53.413Z,15.74
2023-03-08T07:53:20.189Z,15.78
2023-03-08T07:55:47.024Z,15.81
2023-03-08T07:58:14.195Z,15.83
2023-03-08T08:00:41.037Z,15.89
2023-03-08T08:03:07.915Z,15.92
2023-03-08T08:05:36.298Z,15.95
2023-03-08T08:08:03.513Z,16.03
2023-03-08T08:10:30.373Z,16.07
2023-03-08T08:12:57.237Z,16.13
2023-03-08T08:15:25.794Z,16.21
2023-03-08T08:17:52.883Z,16.25
2023-03-08T08:20:19.681Z,16.29
2023-03-08T08:22:46.645Z,16.34
2023-03-08T08:25:13.480Z,16.39
2023-03-08T08:27:40.294Z,16.43
2023-03-08T08:30:07.815Z,16.47
2023-03-08T08:32:36.054Z,16.52
2023-03-08T08:35:02.989Z,16.55
2023-03-08T08:37:30.769Z,16.68
2023-03-08T08:39:57.893Z,16.75
2023-03-08T08:42:25.026Z,16.81
2023-03-08T08:44:54.694Z,16.86
2023-03-08T08:47:21.452Z,16.94
2023-03-08T08:49:48.203Z,16.98
2023-03-08T08:52:15.058Z,16.99
2023-03-08T08:54:41.903Z,17.07
2023-03-08T08:57:08.751Z,17.10
2023-03-08T08:59:35.524Z,17.13
2023-03-08T09:02:02.761Z,17.16
2023-03-08T09:04:29.711Z,17.18
2023-03-08T09:06:56.741Z,17.25
2023-03-08T09:09:23.658Z,17.35
2023-03-08T09:11:55.249Z,17.44
2023-03-08T09:14:22.806Z,17.47
2023-03-08T09:16:49.659Z,17.53
2023-03-08T09:19:16.559Z,17.61
2023-03-08T09:21:43.371Z,17.76
2023-03-08T09:24:11.535Z,17.87
2023-03-08T09:26:38.344Z,18.09
2023-03-08T09:29:05.693Z,18.24
2023-03-08T09:31:35.382Z,18.30
2023-03-08T09:34:04.753Z,18.37
2023-03-08T09:36:31.712Z,18.33
2023-03-08T09:38:58.416Z,18.45
2023-03-08T09:41:43.757Z,18.41
2023-03-08T09:44:43.819Z,18.50
2023-03-08T09:47:33.549Z,18.49
2023-03-08T09:50:21.155Z,18.57
2023-03-08T09:52:54.581Z,18.70
2023-03-08T09:55:33.369Z,18.83
2023-03-08T09:58:14.506Z,18.96
2023-03-08T10:00:41.804Z,19.08
2023-03-08T10:03:36.531Z,19.28
2023-03-08T10:06:17.273Z,19.46
2023-03-08T10:08:59.918Z,19.59
2023-03-08T10:11:54.175Z,19.77
2023-03-08T10:14:26.570Z,19.82
2023-03-08T10:17:01.543Z,19.79
2023-03-08T10:19:35.805Z,19.91
2023-03-08T10:22:14.017Z,20.01
2023-03-08T10:24:48.902Z,19.97
2023-03-08T10:27:32.286Z,20.14
2023-03-08T10:30:01.073Z,20.16
2023-03-08T10:32:28.939Z,20.21
2023-03-08T10:35:03.697Z,20.22
2023-03-08T10:37:32.598Z,20.23
2023-03-08T10:40:05.515Z,20.28
2023-03-08T10:42:33.599Z,20.42
2023-03-08T10:45:11.301Z,20.56
2023-03-08T10:47:39.055Z,20.63
2023-03-08T10:50:08.458Z,20.63
2023-03-08T10:52:35.419Z,20.69
2023-03-08T10:55:10.355Z,20.71
2023-03-08T10:57:37.952Z,20.71
2023-03-08T11:00:26.725Z,20.78
2023-03-08T11:03:14.189Z,20.86
2023-03-08T11:05:53.121Z,20.96
2023-03-08T11:08:28.977Z,21.04
2023-03-08T11:11:04.448Z,21.06
2023-03-08T11:13:35.627Z,21.18
2023-03-08T11:16:14.840Z,21.24
2023-03-08T11:18:51.740Z,21.36
2023-03-08T11:21:46.834Z,21.47
2023-03-08T11:24:47.072Z,21.64
2023-03-08T11:27:56.746Z,21.79
2023-03-08T11:30:46.495Z,21.90
2023-03-08T11:33:49.681Z,22.00
2023-03-08T11:36:48.206Z,22.01
2023-03-08T11:39:30.919Z,22.03
2023-03-08T11:42:04.405Z,22.15
2023-03-08T11:44:46.278Z,22.31
2023-03-08T11:47:33.229Z,22.37
2023-03-08T11:50:21.570Z,22.39
2023-03-08T11:52:48.271Z,22.53
2023-03-08T11:55:36.797Z,22.54
2023-03-08T11:58:20.422Z,22.67
2023-03-08T12:00:50.511Z,22.86
2023-03-08T12:03:22.098Z,22.97
2023-03-08T12:06:02.881Z,22.88
2023-03-08T12:08:34.166Z,23.00
2023-03-08T12:11:11.884Z,22.98
2023-03-08T12:13:44.353Z,22.95
2023-03-08T12:16:14.849Z,23.02
2023-03-08T12:19:09.347Z,22.98
2023-03-08T12:21:49.102Z,23.00
2023-03-08T12:24:18.704Z,23.06
2023-03-08T12:26:55.370Z,23.03
2023-03-08T12:29:26.235Z,23.16
2023-03-08T12:31:53.885Z,23.16
2023-03-08T12:34:29.169Z,23.18
2023-03-08T12:36:56.357Z,23.19
2023-03-08T12:39:32.348Z,23.28
2023-03-08T12:42:13.360Z,23.28
2023-03-08T12:44:40.932Z,23.23
2023-03-08T12:47:13.737Z,23.30
2023-03-08T12:49:51.447Z,23.30
2023-03-08T12:52:18.257Z,23.39
2023-03-08T12:54:55.845Z,23.40
2023-03-08T12:57:25.729Z,23.48
2023-03-08T13:00:06.305Z,23.61
2023-03-08T13:02:34.618Z,23.55
2023-03-08T13:05:24.096Z,23.50
2023-03-08T13:08:13.619Z,23.58
2023-03-08T13:10:52.530Z,23.59
2023-03-08T13:13:51.690Z,23.53
2023-03-08T13:16:20.262Z,23.51
2023-03-08T13:18:50.184Z,23.48
2023-03-08T13:21:28.921Z,23.53
2023-03-08T13:24:09.483Z,23.54
2023-03-08T13:27:05.232Z,23.59
2023-03-08T13:29:33.967Z,23.64
2023-03-08T13:32:21.404Z,23.59
2023-03-08T13:34:59.758Z,23.50
2023-03-08T13:37:28.723Z,23.45
2023-03-08T13:39:58.073Z,23.46
2023-03-08T13:42:27.613Z,23.39
2023-03-08T13:45:18.153Z,23.44
2023-03-08T13:47:47.317Z,23.40
2023-03-08T13:50:35.187Z,23.45
2023-03-08T13:53:03.974Z,23.54
2023-03-08T13:55:38.767Z,23.63
2023-03-08T13:58:06.065Z,23.60
2023-03-08T14:39:31.276Z,23.21
2023-03-08T14:41:58.219Z,23.23
2023-03-08T14:44:29.629Z,23.20
2023-03-08T14:46:59.486Z,23.11
2023-03-08T14:49:29.423Z,23.08
2023-03-08T14:51:56.383Z,23.06
2023-03-08T14:54:28.579Z,22.96
2023-03-08T14:56:55.378Z,22.89
2023-03-08T14:59:27.919Z,22.92
2023-03-08T15:01:55.398Z,22.92
2023-03-08T15:04:25.706Z,22.88
2023-03-08T15:06:54.629Z,22.85
2023-03-08T15:09:22.708Z,22.86
2023-03-08T15:11:52.427Z,22.88
2023-03-08T15:14:19.298Z,22.95
2023-03-08T15:16:46.196Z,23.02
2023-03-08T15:19:13.977Z,23.08
2023-03-08T15:21:41.344Z,23.12
2023-03-08T15:24:14.987Z,23.13
2023-03-08T15:26:41.817Z,23.19
2023-03-08T15:29:29.302Z,23.22
2023-03-08T15:31:57.306Z,23.16
2023-03-08T15:34:26.223Z,23.19
2023-03-08T15:36:55.067Z,23.18
2023-03-08T15:39:21.937Z,23.18
2023-03-08T15:41:48.846Z,23.23
2023-03-08T15:44:15.777Z,23.28
2023-03-08T15:46:42.932Z,23.23
2023-03-08T15:49:10.799Z,23.19
2023-03-08T15:51:38.409Z,23.29
2023-03-08T15:54:06.606Z,23.29
2023-03-08T15:56:33.896Z,23.29
2023-03-08T15:59:01.010Z,23.23
2023-03-08T16:01:28.200Z,23.26
2023-03-08T16:03:56.679Z,23.25
2023-03-08T16:06:23.993Z,23.23
2023-03-08T16:08:50.986Z,23.25
2023-03-08T16:11:21.202Z,23.14
2023-03-08T16:13:50.209Z,23.10
2023-03-08T16:16:17.652Z,23.00
2023-03-08T16:18:44.708Z,22.89
2023-03-08T16:21:11.919Z,22.85
2023-03-08T16:23:41.566Z,22.73
2023-03-08T16:26:16.701Z,22.73
2023-03-08T16:28:46.485Z,22.71
2023-03-08T16:31:14.650Z,22.71
2023-03-08T16:33:41.499Z,22.64
2023-03-08T16:36:08.502Z,22.65
2023-03-08T16:38:35.638Z,22.55
2023-03-08T16:41:12.675Z,22.49
2023-03-08T16:43:46.779Z,22.48
2023-03-08T16:46:16.783Z,22.43
2023-03-08T16:48:43.730Z,22.38
2023-03-08T16:51:14.426Z,22.36
2023-03-08T16:53:41.281Z,22.23
2023-03-08T16:56:08.044Z,22.09
2023-03-08T16:58:34.861Z,22.15
2023-03-08T17:01:01.839Z,22.00
2023-03-08T17:03:28.770Z,21.94
2023-03-08T17:05:55.512Z,21.85
2023-03-08T17:08:22.280Z,21.73
2023-03-08T17:10:49.118Z,21.69
2023-03-08T17:13:15.870Z,21.60
2023-03-08T17:15:44.908Z,21.49
2023-03-08T17:18:12.620Z,21.43
2023-03-08T17:20:41.304Z,21.40
2023-03-08T17:23:09.786Z,21.32
2023-03-08T17:25:40.982Z,21.25
2023-03-08T17:28:08.910Z,21.17
2023-03-08T17:30:38.070Z,21.16
2023-03-08T17:33:05.065Z,21.07
2023-03-08T17:35:31.956Z,21.02
2023-03-08T17:37:58.887Z,20.99
2023-03-08T17:40:25.682Z,20.96
2023-03-08T17:42:52.511Z,20.91
2023-03-08T17:45:19.795Z,20.90
2023-03-08T17:47:48.327Z,20.85
2023-03-08T17:50:15.130Z,20.82
2023-03-08T17:52:42.206Z,20.80
2023-03-08T17:55:09.545Z,20.77
2023-03-08T17:57:37.648Z,20.71
2023-03-08T18:00:06.223Z,20.68
2023-03-08T18:02:33.680Z,20.66
2023-03-08T18:05:00.565Z,20.62
2023-03-08T18:07:29.114Z,20.61
2023-03-08T18:09:56.001Z,20.61
2023-03-08T18:12:23.021Z,20.59
2023-03-08T18:14:52.651Z,20.55
2023-03-08T18:17:20.831Z,20.52
2023-03-08T18:19:48.077Z,20.50
2023-03-08T18:22:15.834Z,20.51
2023-03-08T18:24:42.854Z,20.48
2023-03-08T18:27:09.621Z,20.46
2023-03-08T18:29:37.006Z,20.45
2023-03-08T18:32:04.386Z,20.44
2023-03-08T18:34:31.193Z,20.38
2023-03-08T18:37:01.043Z,20.40
2023-03-08T18:39:27.777Z,20.37
2023-03-08T18:41:56.909Z,20.37
2023-03-08T18:44:26.788Z,20.30
2023-03-08T18:46:53.821Z,20.30
2023-03-08T18:49:20.706Z,20.27
2023-03-08T18:51:47.560Z,20.28
2023-03-08T18:54:20.794Z,20.16
2023-03-08T18:56:50.035Z,20.19
2023-03-08T18:59:16.979Z,20.17
2023-03-08T19:01:44.690Z,20.05
2023-03-08T19:04:11.761Z,20.11
2023-03-08T19:06:38.641Z,20.09
2023-03-08T19:09:16.635Z,20.06
2023-03-08T19:11:44.201Z,20.00
2023-03-08T19:14:15.008Z,19.96
2023-03-08T19:16:42.155Z,19.94
2023-03-08T19:19:12.373Z,19.92
2023-03-08T19:21:42.677Z,19.91
2023-03-08T19:24:12.545Z,19.87
2023-03-08T19:26:41.332Z,19.92
2023-03-08T19:29:10.037Z,19.95
2023-03-08T19:31:40.335Z,19.96
2023-03-08T19:34:07.894Z,19.95
2023-03-08T19:36:38.213Z,19.95
2023-03-08T19:39:10.249Z,19.96
2023-03-08T19:41:37.049Z,19.98
2023-03-08T19:44:07.195Z,19.98
2023-03-08T19:46:35.572Z,19.97
2023-03-08T19:49:04.541Z,19.97
2023-03-08T19:51:31.848Z,19.99
2023-03-08T19:53:58.993Z,19.96
2023-03-08T19:56:26.485Z,19.95
2023-03-08T19:58:56.115Z,19.93
2023-03-08T20:01:23.545Z,19.93
2023-03-08T20:03:50.471Z,19.92
2023-03-08T20:06:28.983Z,19.90
2023-03-08T20:08:56.954Z,19.88
2023-03-08T20:11:24.226Z,19.86
2023-03-08T20:13:51.347Z,19.83
2023-03-08T20:16:19.511Z,19.81
2023-03-08T20:18:49.171Z,19.78
2023-03-08T20:21:17.824Z,19.74
2023-03-08T20:23:45.746Z,19.72
2023-03-08T20:26:13.065Z,19.66
2023-03-08T20:28:39.995Z,19.64
2023-03-08T20:31:10.964Z,19.63
2023-03-08T20:33:38.415Z,19.60
2023-03-08T20:36:06.077Z,19.54
2023-03-08T20:38:32.909Z,19.52
2023-03-08T20:41:00.959Z,19.52
2023-03-08T20:43:28.617Z,19.51
2023-03-08T20:45:55.543Z,19.49
2023-03-08T20:48:23.249Z,19.47
2023-03-08T20:50:50.114Z,19.40
2023-03-08T20:53:16.867Z,19.36
2023-03-08T20:55:43.659Z,19.32
2023-03-08T20:58:10.451Z,19.26
2023-03-08T21:00:39.036Z,19.22
2023-03-08T21:03:07.329Z,19.18
2023-03-08T21:05:36.039Z,19.17
2023-03-08T21:08:04.036Z,19.13
2023-03-08T21:10:32.956Z,19.11
2023-03-08T21:13:00.206Z,19.07
2023-03-08T21:15:27.259Z,19.02
2023-03-08T21:17:54.171Z,18.96
2023-03-08T21:20:21.200Z,18.91
2023-03-08T21:22:47.970Z,18.86
2023-03-08T21:25:14.755Z,18.84
2023-03-08T21:27:41.576Z,18.83
2023-03-08T21:30:09.184Z,18.79
2023-03-08T21:32:36.081Z,18.76
2023-03-08T21:35:03.213Z,18.75
2023-03-08T21:37:30.020Z,18.72
2023-03-08T21:39:57.186Z,18.72
2023-03-08T21:42:24.654Z,18.71
2023-03-08T21:44:51.391Z,18.70
2023-03-08T21:47:18.165Z,18.68
2023-03-08T21:49:44.916Z,18.66
2023-03-08T21:52:11.709Z,18.63
2023-03-08T21:54:38.528Z,18.63
2023-03-08T21:57:05.399Z,18.60
2023-03-08T21:59:32.161Z,18.61
2023-03-08T22:01:59.168Z,18.58
2023-03-08T22:04:27.274Z,18.54
2023-03-08T22:06:55.638Z,18.53
2023-03-08T22:09:23.393Z,18.51
2023-03-08T22:11:51.607Z,18.51
2023-03-08T22:14:18.416Z,18.49
2023-03-08T22:16:45.202Z,18.42
2023-03-08T22:19:11.988Z,18.41
2023-03-08T22:21:38.805Z,18.31
2023-03-08T22:24:08.379Z,18.36
2023-03-08T22:26:35.538Z,18.35
2023-03-08T22:29:02.338Z,18.35
2023-03-08T22:31:30.466Z,18.33
2023-03-08T22:33:57.910Z,18.31
2023-03-08T22:36:25.087Z,18.33
2023-03-08T22:38:51.990Z,18.33
2023-03-08T22:41:24.675Z,18.32
2023-03-08T22:43:52.411Z,18.34
2023-03-08T22:46:27.761Z,18.34
2023-03-08T22:48:58.181Z,18.34
2023-03-08T22:51:27.719Z,18.33
2023-03-08T22:53:56.027Z,18.34
2023-03-08T22:56:25.994Z,18.34
2023-03-08T22:58:53.230Z,18.32
2023-03-08T23:01:22.324Z,18.33
2023-03-08T23:03:50.496Z,18.31
2023-03-08T23:06:18.656Z,18.29
2023-03-08T23:08:46.307Z,18.33
2023-03-08T23:11:13.795Z,18.28
2023-03-08T23:13:41.324Z,18.33
2023-03-08T23:16:08.957Z,18.28
2023-03-08T23:18:36.068Z,18.31
2023-03-08T23:21:04.975Z,18.23
2023-03-08T23:23:32.095Z,18.21
2023-03-08T23:25:59.108Z,18.17
2023-03-08T23:28:26.103Z,18.15
2023-03-08T23:30:52.853Z,18.26
2023-03-08T23:33:19.665Z,18.26
2023-03-08T23:35:49.907Z,18.32
2023-03-08T23:38:16.725Z,18.40
2023-03-08T23:40:43.628Z,18.41
2023-03-08T23:43:10.462Z,18.42
2023-03-08T23:45:39.379Z,18.42
2023-03-08T23:48:06.735Z,18.41
2023-03-08T23:50:33.710Z,18.44
2023-03-08T23:53:00.457Z,18.45
2023-03-08T23:55:27.457Z,18.44
2023-03-08T23:57:54.213Z,18.48
